createdAt,value
2022-11-20T00:01:28.196Z,-0.87
2022-11-20T00:04:29.632Z,-0.85
2022-11-20T00:07:48.650Z,-0.79
2022-11-20T00:11:20.826Z,-0.74
2022-11-20T00:14:20.803Z,-0.74
2022-11-20T00:17:25.274Z,-0.71
2022-11-20T00:20:43.310Z,-0.99
2022-11-20T00:23:59.809Z,-0.83
2022-11-20T00:27:04.140Z,-0.66
2022-11-20T00:29:59.028Z,-0.86
2022-11-20T00:33:06.931Z,-0.82
2022-11-20T00:36:20.649Z,-0.68
2022-11-20T00:39:35.050Z,-0.66
2022-11-20T00:42:39.787Z,-0.68
2022-11-20T00:45:55.831Z,-0.88
2022-11-20T00:49:39.093Z,-0.74
2022-11-20T00:52:35.415Z,-0.77
2022-11-20T00:55:34.822Z,-0.77
2022-11-20T00:59:25.842Z,-0.89
2022-11-20T01:10:11.310Z,-0.83
2022-11-20T01:14:09.901Z,-0.86
2022-11-20T01:20:13.554Z,-0.74
2022-11-20T01:23:28.113Z,-0.70
2022-11-20T01:26:59.425Z,-0.77
2022-11-20T01:30:00.931Z,-1.02
2022-11-20T01:33:45.056Z,-0.67
2022-11-20T01:40:11.544Z,-0.62
2022-11-20T01:43:46.749Z,-0.57
2022-11-20T01:47:56.463Z,-0.48
2022-11-20T01:51:00.153Z,-0.45
2022-11-20T01:53:59.960Z,-0.50
2022-11-20T01:57:21.519Z,-0.77
2022-11-20T02:00:55.129Z,-0.54
2022-11-20T02:03:58.925Z,-0.48
2022-11-20T02:07:35.078Z,-0.42
2022-11-20T02:11:18.995Z,-0.50
2022-11-20T02:14:49.404Z,-0.58
2022-11-20T02:17:45.591Z,-0.85
2022-11-20T02:20:49.383Z,-0.56
2022-11-20T02:24:33.384Z,-0.64
2022-11-20T02:28:12.145Z,-0.70
2022-11-20T02:31:20.095Z,-0.75
2022-11-20T02:34:16.785Z,-0.79
2022-11-20T02:37:16.065Z,-0.82
2022-11-20T02:40:32.169Z,-0.96
2022-11-20T02:43:37.617Z,-0.92
2022-11-20T02:46:50.449Z,-1.00
2022-11-20T02:53:25.951Z,-1.04
2022-11-20T02:56:39.072Z,-1.36
2022-11-20T02:59:31.055Z,-1.15
2022-11-20T03:02:45.999Z,-1.16
2022-11-20T03:05:56.788Z,-1.20
2022-11-20T03:09:16.409Z,-1.39
2022-11-20T03:12:39.910Z,-1.19
2022-11-20T03:15:33.979Z,-1.23
2022-11-20T03:18:38.424Z,-1.21
2022-11-20T03:21:44.664Z,-1.29
2022-11-20T03:24:43.336Z,-1.37
2022-11-20T03:28:35.320Z,-1.52
2022-11-20T03:31:43.434Z,-1.48
2022-11-20T03:35:00.853Z,-1.24
2022-11-20T03:38:04.168Z,-1.19
2022-11-20T03:41:16.892Z,-1.15
2022-11-20T03:44:20.957Z,-1.12
2022-11-20T03:47:35.125Z,-1.17
2022-11-20T03:50:29.219Z,-1.06
2022-11-20T03:53:28.096Z,-1.24
2022-11-20T03:56:36.245Z,-1.06
2022-11-20T03:59:42.416Z,-1.04
2022-11-20T04:03:03.477Z,-1.00
2022-11-20T04:06:57.408Z,-1.02
2022-11-20T04:10:07.802Z,-0.96
2022-11-20T04:13:14.011Z,-0.89
2022-11-20T04:16:29.887Z,-0.92
2022-11-20T04:19:33.139Z,-0.83
2022-11-20T04:22:45.030Z,-0.96
2022-11-20T04:25:57.469Z,-0.87
2022-11-20T04:29:04.209Z,-0.90
2022-11-20T04:32:08.575Z,-0.96
2022-11-20T04:35:10.117Z,-0.86
2022-11-20T04:38:14.832Z,-1.20
2022-11-20T04:41:36.159Z,-0.85
2022-11-20T04:44:30.657Z,-1.03
2022-11-20T04:47:35.153Z,-1.00
2022-11-20T04:51:03.677Z,-1.08
2022-11-20T04:54:27.138Z,-0.94
2022-11-20T04:57:29.576Z,-0.89
2022-11-20T05:00:25.380Z,-1.22
2022-11-20T05:03:26.321Z,-0.94
2022-11-20T05:06:18.113Z,-1.20
2022-11-20T05:09:10.839Z,-1.02
2022-11-20T05:12:51.305Z,-0.86
2022-11-20T05:15:59.274Z,-0.93
2022-11-20T05:18:54.016Z,-0.95
2022-11-20T05:22:08.661Z,-1.07
2022-11-20T05:25:33.047Z,-1.05
2022-11-20T05:29:08.435Z,-1.05
2022-11-20T05:36:02.919Z,-0.89
2022-11-20T05:39:36.862Z,-0.89
2022-11-20T05:42:46.677Z,-1.08
2022-11-20T05:46:41.458Z,-0.97
2022-11-20T05:50:25.465Z,-0.91
2022-11-20T05:53:33.876Z,-0.94
2022-11-20T05:57:00.323Z,-1.11
2022-11-20T06:00:33.080Z,-1.07
2022-11-20T06:03:30.798Z,-1.07
2022-11-20T06:06:56.173Z,-1.12
2022-11-20T06:10:05.534Z,-1.13
2022-11-20T06:13:19.241Z,-1.39
2022-11-20T06:16:20.741Z,-1.13
2022-11-20T06:19:24.690Z,-1.12
2022-11-20T06:26:33.321Z,-1.04
2022-11-20T06:30:18.776Z,-1.05
2022-11-20T06:34:01.688Z,-1.05
2022-11-20T06:37:16.612Z,-0.94
2022-11-20T06:40:10.421Z,-1.00
2022-11-20T06:43:04.886Z,-1.04
2022-11-20T06:46:10.446Z,-1.10
2022-11-20T06:49:25.587Z,-1.14
2022-11-20T06:52:21.438Z,-1.50
2022-11-20T06:55:11.007Z,-1.77
2022-11-20T06:58:20.434Z,-1.59
2022-11-20T07:01:10.572Z,-1.35
2022-11-20T07:04:00.109Z,-1.25
2022-11-20T07:07:13.200Z,-1.26
2022-11-20T07:10:34.373Z,-1.47
2022-11-20T07:13:30.270Z,-1.24
2022-11-20T07:17:37.382Z,-1.20
2022-11-20T07:21:08.249Z,-1.22
2022-11-20T07:23:54.363Z,-1.58
2022-11-20T07:26:41.727Z,-1.81
2022-11-20T07:29:29.739Z,-1.50
2022-11-20T07:35:53.003Z,-1.16
2022-11-20T07:38:59.348Z,-1.11
2022-11-20T07:41:56.295Z,-1.13
2022-11-20T07:44:49.507Z,-1.33
2022-11-20T07:47:38.791Z,-1.23
2022-11-20T07:51:09.519Z,-1.08
2022-11-20T07:54:11.563Z,-0.94
2022-11-20T07:57:28.063Z,-0.85
2022-11-20T08:00:16.596Z,-1.48
2022-11-20T08:03:05.673Z,-1.26
2022-11-20T08:05:52.346Z,-1.33
2022-11-20T08:08:42.995Z,-0.99
2022-11-20T08:11:47.955Z,-0.72
2022-11-20T08:14:34.551Z,-1.17
2022-11-20T08:17:20.519Z,-0.98
2022-11-20T08:20:07.981Z,-0.65
2022-11-20T08:22:53.836Z,-1.03
2022-11-20T08:25:40.278Z,-0.79
2022-11-20T08:28:26.445Z,-0.59
2022-11-20T08:31:12.711Z,-0.76
2022-11-20T08:33:59.336Z,-0.68
2022-11-20T08:36:46.319Z,-1.18
2022-11-20T08:39:32.755Z,-0.90
2022-11-20T08:42:19.313Z,-0.88
2022-11-20T08:45:07.292Z,-0.60
2022-11-20T08:47:54.588Z,-0.41
2022-11-20T08:50:40.476Z,-0.66
2022-11-20T08:53:27.821Z,-0.71
2022-11-20T08:56:14.548Z,-0.40
2022-11-20T09:02:07.016Z,-0.33
2022-11-20T09:04:54.487Z,-0.40
2022-11-20T09:07:41.465Z,-0.05
2022-11-20T09:10:28.959Z,-0.55
2022-11-20T09:13:15.543Z,-0.18
2022-11-20T09:16:07.640Z,0.00
2022-11-20T09:19:02.185Z,0.40
2022-11-20T09:22:01.286Z,0.52
2022-11-20T09:24:47.143Z,0.37
2022-11-20T09:27:33.911Z,0.26
2022-11-20T09:30:20.332Z,0.42
2022-11-20T09:33:07.683Z,0.83
2022-11-20T09:35:53.693Z,0.32
2022-11-20T09:38:40.329Z,0.67
2022-11-20T09:41:50.908Z,0.85
2022-11-20T09:45:06.192Z,0.94
2022-11-20T09:48:14.222Z,0.76
2022-11-20T09:51:11.745Z,0.90
2022-11-20T09:54:15.289Z,0.86
2022-11-20T09:57:07.207Z,0.75
2022-11-20T09:59:58.568Z,0.48
2022-11-20T10:02:50.537Z,0.41
2022-11-20T10:05:46.747Z,0.71
2022-11-20T10:09:03.585Z,0.79
2022-11-20T10:12:17.050Z,0.82
2022-11-20T10:15:12.221Z,0.64
2022-11-20T10:18:22.099Z,0.71
2022-11-20T10:21:37.258Z,0.96
2022-11-20T10:24:30.983Z,0.95
2022-11-20T10:27:43.435Z,0.55
2022-11-20T10:30:31.336Z,0.73
2022-11-20T10:33:21.812Z,0.61
2022-11-20T10:36:22.464Z,0.73
2022-11-20T10:39:25.296Z,0.98
2022-11-20T10:42:20.898Z,0.32
2022-11-20T10:45:22.824Z,0.82
2022-11-20T10:48:09.073Z,0.75
2022-11-20T10:51:04.427Z,0.90
2022-11-20T10:53:54.757Z,0.91
2022-11-20T10:56:54.236Z,0.89
2022-11-20T10:59:49.442Z,0.89
2022-11-20T11:02:40.943Z,0.86
2022-11-20T11:05:44.749Z,0.83
2022-11-20T11:08:37.171Z,0.32
2022-11-20T11:11:24.908Z,0.25
2022-11-20T11:14:13.913Z,0.67
2022-11-20T11:17:00.373Z,0.73
2022-11-20T11:19:47.054Z,0.73
2022-11-20T11:22:35.407Z,0.29
2022-11-20T11:25:23.162Z,0.84
2022-11-20T11:28:18.155Z,0.85
2022-11-20T11:31:05.351Z,0.62
2022-11-20T11:33:51.673Z,0.86
2022-11-20T11:36:38.416Z,0.77
2022-11-20T11:39:25.544Z,0.49
2022-11-20T11:42:18.970Z,0.36
2022-11-20T11:45:07.552Z,0.43
2022-11-20T11:47:55.838Z,0.62
2022-11-20T11:50:50.434Z,0.52
2022-11-20T11:53:41.989Z,0.60
2022-11-20T11:56:32.102Z,0.15
2022-11-20T11:59:49.693Z,0.52
2022-11-20T12:02:48.982Z,0.80
2022-11-20T12:05:45.027Z,0.27
2022-11-20T12:08:57.411Z,0.57
2022-11-20T12:11:52.552Z,0.50
2022-11-20T12:14:40.830Z,0.25
2022-11-20T12:17:27.127Z,0.40
2022-11-20T12:20:15.841Z,0.20
2022-11-20T12:23:23.930Z,0.54
2022-11-20T12:26:21.501Z,0.49
2022-11-20T12:30:10.174Z,0.59
2022-11-20T12:33:15.895Z,0.29
2022-11-20T12:36:06.066Z,0.65
2022-11-20T12:39:27.277Z,0.39
2022-11-20T12:42:54.355Z,0.64
2022-11-20T12:46:29.260Z,0.68
2022-11-20T12:49:27.857Z,0.92
2022-11-20T12:52:29.149Z,0.91
2022-11-20T12:55:41.997Z,0.86
2022-11-20T12:58:55.406Z,0.64
2022-11-20T13:02:02.079Z,0.90
2022-11-20T13:05:17.196Z,0.86
2022-11-20T13:08:20.613Z,0.49
2022-11-20T13:11:41.609Z,0.40
2022-11-20T13:15:30.282Z,0.80
2022-11-20T13:18:21.896Z,0.77
2022-11-20T13:21:35.699Z,0.29
2022-11-20T13:24:33.819Z,0.54
2022-11-20T13:27:32.204Z,0.49
2022-11-20T13:30:20.711Z,0.66
2022-11-20T13:33:26.958Z,0.32
2022-11-20T13:36:25.414Z,0.65
2022-11-20T13:39:12.756Z,0.61
2022-11-20T13:42:31.073Z,0.12
2022-11-20T13:45:29.032Z,0.15
2022-11-20T13:48:23.412Z,0.47
2022-11-20T13:51:35.755Z,0.64
2022-11-20T13:54:33.628Z,0.63
2022-11-20T13:57:57.425Z,0.61
2022-11-20T14:00:52.165Z,0.60
2022-11-20T14:06:48.419Z,0.37
2022-11-20T14:09:35.312Z,0.55
2022-11-20T14:12:24.501Z,0.62
2022-11-20T14:15:26.205Z,0.60
2022-11-20T14:18:21.392Z,0.57
2022-11-20T14:21:10.763Z,0.63
2022-11-20T14:24:07.751Z,0.49
2022-11-20T14:26:55.013Z,0.54
2022-11-20T14:29:42.816Z,0.60
2022-11-20T14:32:31.026Z,0.59
2022-11-20T14:35:29.987Z,0.57
2022-11-20T14:38:18.736Z,0.53
2022-11-20T14:41:20.794Z,0.54
2022-11-20T14:44:09.907Z,0.52
2022-11-20T14:46:56.679Z,0.42
2022-11-20T14:49:43.786Z,0.58
2022-11-20T14:52:32.093Z,0.56
2022-11-20T14:55:58.751Z,0.63
2022-11-20T14:58:58.854Z,0.60
2022-11-20T15:01:56.541Z,0.53
2022-11-20T15:04:50.823Z,0.60
2022-11-20T15:07:41.254Z,0.53
2022-11-20T15:10:29.205Z,0.43
2022-11-20T15:13:34.642Z,0.42
2022-11-20T15:16:22.501Z,0.46
2022-11-20T15:19:18.694Z,0.31
2022-11-20T15:22:17.360Z,0.42
2022-11-20T15:25:13.113Z,0.27
2022-11-20T15:27:59.292Z,0.47
2022-11-20T15:30:47.315Z,0.34
2022-11-20T15:33:34.336Z,0.50
2022-11-20T15:36:21.584Z,0.43
2022-11-20T15:39:09.322Z,0.49
2022-11-20T15:41:55.752Z,0.48
2022-11-20T15:44:42.091Z,0.33
2022-11-20T15:47:35.879Z,0.45
2022-11-20T15:50:23.336Z,0.37
2022-11-20T15:53:11.671Z,0.41
2022-11-20T15:55:58.401Z,0.47
2022-11-20T15:58:45.087Z,0.40
2022-11-20T16:01:33.872Z,0.46
2022-11-20T16:04:20.974Z,0.33
2022-11-20T16:07:07.412Z,0.24
2022-11-20T16:09:53.937Z,0.47
2022-11-20T16:12:58.937Z,0.45
2022-11-20T16:15:53.814Z,0.47
2022-11-20T16:18:40.132Z,0.40
2022-11-20T16:21:33.111Z,0.42
2022-11-20T16:24:19.608Z,0.47
2022-11-20T16:27:09.264Z,0.39
2022-11-20T16:29:56.049Z,0.39
2022-11-20T16:32:43.463Z,0.41
2022-11-20T16:35:31.632Z,0.39
2022-11-20T16:38:18.256Z,0.54
2022-11-20T16:41:14.814Z,0.52
2022-11-20T16:44:03.950Z,0.33
2022-11-20T16:46:50.444Z,0.47
2022-11-20T16:49:37.026Z,0.36
2022-11-20T16:52:23.532Z,0.37
2022-11-20T16:55:10.514Z,0.13
2022-11-20T16:57:57.673Z,0.17
2022-11-20T17:00:50.020Z,0.36
2022-11-20T17:03:38.916Z,0.37
2022-11-20T17:06:27.949Z,0.21
2022-11-20T17:09:14.676Z,0.25
2022-11-20T17:12:01.166Z,0.18
2022-11-20T17:14:47.750Z,0.08
2022-11-20T17:17:34.491Z,-0.17
2022-11-20T17:20:23.621Z,0.07
2022-11-20T17:23:10.296Z,0.03
2022-11-20T17:26:07.627Z,-0.16
2022-11-20T17:29:03.138Z,0.04
2022-11-20T17:31:59.594Z,-0.07
2022-11-20T17:34:48.762Z,-0.04
2022-11-20T17:37:35.228Z,0.10
2022-11-20T17:40:27.544Z,0.17
2022-11-20T17:43:14.573Z,0.09
2022-11-20T17:46:14.763Z,0.16
2022-11-20T17:49:23.047Z,0.11
2022-11-20T17:52:10.673Z,0.08
2022-11-20T17:54:59.615Z,0.08
2022-11-20T17:57:56.964Z,-0.06
2022-11-20T18:00:45.447Z,0.10
2022-11-20T18:03:33.174Z,-0.06
2022-11-20T18:06:25.475Z,-0.06
2022-11-20T18:09:12.669Z,0.13
2022-11-20T18:11:58.795Z,-0.02
2022-11-20T18:14:45.569Z,0.17
2022-11-20T18:17:37.411Z,0.16
2022-11-20T18:20:30.489Z,0.10
2022-11-20T18:23:19.195Z,0.01
2022-11-20T18:26:05.773Z,0.21
2022-11-20T18:28:55.266Z,0.24
2022-11-20T18:31:42.714Z,0.25
2022-11-20T18:34:29.125Z,0.18
2022-11-20T18:37:16.727Z,0.15
2022-11-20T18:40:03.676Z,0.23
2022-11-20T18:43:09.048Z,0.25
2022-11-20T18:46:03.176Z,0.23
2022-11-20T18:48:52.959Z,0.22
2022-11-20T18:51:46.158Z,0.02
2022-11-20T18:54:32.627Z,0.23
2022-11-20T18:57:23.561Z,0.17
2022-11-20T19:00:10.509Z,0.26
2022-11-20T19:02:57.592Z,0.26
2022-11-20T19:05:47.037Z,0.27
2022-11-20T19:08:40.717Z,0.12
2022-11-20T19:11:27.346Z,0.20
2022-11-20T19:14:16.678Z,0.20
2022-11-20T19:17:04.616Z,0.18
2022-11-20T19:20:03.141Z,0.18
2022-11-20T19:22:51.533Z,0.00
2022-11-20T19:25:38.598Z,0.18
2022-11-20T19:28:25.476Z,0.05
2022-11-20T19:31:14.380Z,0.14
2022-11-20T19:34:03.617Z,0.18
2022-11-20T19:36:51.093Z,0.18
2022-11-20T19:39:38.455Z,0.16
2022-11-20T19:42:25.677Z,0.06
2022-11-20T19:45:13.272Z,0.11
2022-11-20T19:48:07.760Z,0.16
2022-11-20T19:50:55.934Z,0.19
2022-11-20T19:53:42.727Z,0.24
2022-11-20T19:56:31.563Z,0.26
2022-11-20T19:59:18.642Z,0.19
2022-11-20T20:02:05.762Z,0.11
2022-11-20T20:04:56.918Z,0.12
2022-11-20T20:07:44.825Z,0.18
2022-11-20T20:10:31.642Z,0.20
2022-11-20T20:13:20.917Z,0.09
2022-11-20T20:16:12.326Z,0.20
2022-11-20T20:19:03.565Z,0.21
2022-11-20T20:21:54.058Z,0.20
2022-11-20T20:24:42.104Z,0.19
2022-11-20T20:27:31.879Z,0.01
2022-11-20T20:30:19.848Z,0.13
2022-11-20T20:33:06.920Z,0.15
2022-11-20T20:35:54.034Z,0.11
2022-11-20T20:38:42.956Z,-0.06
2022-11-20T20:41:30.359Z,0.13
2022-11-20T20:44:35.619Z,0.12
2022-11-20T20:47:23.476Z,0.10
2022-11-20T20:50:12.064Z,0.03
2022-11-20T20:52:58.589Z,0.09
2022-11-20T20:55:57.572Z,0.09
2022-11-20T20:58:45.335Z,-0.10
2022-11-20T21:01:31.716Z,-0.03
2022-11-20T21:04:18.665Z,-0.12
2022-11-20T21:07:05.761Z,-0.25
2022-11-20T21:09:52.234Z,-0.23
2022-11-20T21:12:40.610Z,-0.29
2022-11-20T21:15:27.265Z,-0.49
2022-11-20T21:18:13.441Z,-0.45
2022-11-20T21:21:18.809Z,-0.50
2022-11-20T21:24:06.916Z,-0.60
2022-11-20T21:27:08.453Z,-0.71
2022-11-20T21:29:55.121Z,-0.96
2022-11-20T21:32:44.244Z,-0.97
2022-11-20T21:35:30.293Z,-0.93
2022-11-20T21:38:16.835Z,-1.09
2022-11-20T21:41:08.246Z,-0.96
2022-11-20T21:47:10.243Z,-0.94
2022-11-20T21:49:59.609Z,-0.95
2022-11-20T21:52:46.102Z,-0.94
2022-11-20T21:55:32.769Z,-1.14
2022-11-20T21:58:19.271Z,-1.07
2022-11-20T22:01:09.367Z,-1.14
2022-11-20T22:04:00.782Z,-1.22
2022-11-20T22:06:50.279Z,-1.31
2022-11-20T22:09:40.847Z,-1.26
2022-11-20T22:12:33.894Z,-1.38
2022-11-20T22:15:53.269Z,-1.40
2022-11-20T22:18:28.864Z,-1.45
2022-11-20T22:21:16.409Z,-1.56
2022-11-20T22:24:02.884Z,-1.77
2022-11-20T22:26:49.242Z,-1.67
2022-11-20T22:29:40.640Z,-1.70
2022-11-20T22:32:29.157Z,-1.70
2022-11-20T22:35:16.095Z,-1.67
2022-11-20T22:38:07.808Z,-1.72
2022-11-20T22:40:55.475Z,-1.80
2022-11-20T22:43:44.964Z,-1.88
2022-11-20T22:46:33.769Z,-1.91
2022-11-20T22:49:22.751Z,-2.08
2022-11-20T22:52:09.481Z,-2.02
2022-11-20T22:54:57.862Z,-2.01
2022-11-20T22:57:44.287Z,-2.02
2022-11-20T23:00:31.987Z,-2.10
2022-11-20T23:03:18.771Z,-1.97
2022-11-20T23:06:05.537Z,-2.08
2022-11-20T23:08:52.960Z,-1.94
2022-11-20T23:11:42.298Z,-2.02
2022-11-20T23:14:32.480Z,-2.03
2022-11-20T23:17:34.536Z,-1.87
2022-11-20T23:20:20.897Z,-1.93
2022-11-20T23:23:07.265Z,-2.05
2022-11-20T23:25:53.678Z,-2.08
